Time;durP1;ratioP1;P1;durP2;ratioP2;P2;SDS_P1;SDS_P2;PMS_P1;PMS_P2;Temp;Humidity;BMP_temperature;BMP_pressure;BME280_temperature;BME280_humidity;BME280_pressure;Samples;Min_cycle;Max_cycle;Signal;HPM_P1;HPM_P2
2022/03/05 00:00:00;;;;;;;21.10;10.70;;;3.90;99.90;;;;;;5032933;28;20426;-64
2022/03/05 00:02:26;;;;;;;22.23;9.47;;;3.90;99.90;;;;;;5032929;28;20254;-64
2022/03/05 00:04:52;;;;;;;15.27;8.00;;;3.80;99.90;;;;;;5032993;28;20572;-64
2022/03/05 00:07:19;;;;;;;20.93;10.37;;;3.80;99.90;;;;;;5032568;28;20257;-64
2022/03/05 00:09:46;;;;;;;20.63;8.97;;;3.70;99.90;;;;;;5032960;28;20434;-64
2022/03/05 00:12:11;;;;;;;19.30;10.33;;;3.60;99.90;;;;;;5032808;28;20666;-64
2022/03/05 00:14:37;;;;;;;20.13;9.50;;;3.70;99.90;;;;;;5032684;28;20565;-64
2022/03/05 00:17:04;;;;;;;20.40;10.13;;;3.60;99.90;;;;;;5032395;28;20624;-64
2022/03/05 00:19:29;;;;;;;24.43;11.30;;;3.60;99.90;;;;;;5032783;28;20219;-64
2022/03/05 00:21:57;;;;;;;20.90;9.17;;;3.50;99.90;;;;;;5033046;28;20481;-64
2022/03/05 00:24:26;;;;;;;21.93;9.90;;;3.50;99.90;;;;;;5032709;28;20570;-64
2022/03/05 00:26:51;;;;;;;23.30;10.80;;;3.50;99.90;;;;;;5032333;28;20772;-65
2022/03/05 00:29:17;;;;;;;20.97;10.23;;;3.50;99.90;;;;;;5032464;28;20436;-64
2022/03/05 00:31:43;;;;;;;26.03;10.80;;;3.40;99.90;;;;;;5059581;23;20227;-82
2022/03/05 00:34:08;;;;;;;22.70;12.30;;;3.40;99.90;;;;;;5073883;28;20169;-82
2022/03/05 00:36:34;;;;;;;25.83;10.47;;;3.30;99.90;;;;;;5072606;28;20204;-83
2022/03/05 00:38:59;;;;;;;23.30;10.43;;;3.30;99.90;;;;;;5073965;28;20181;-82
2022/03/05 00:41:25;;;;;;;24.57;10.40;;;3.30;99.90;;;;;;5073857;28;20211;-83
2022/03/05 00:43:50;;;;;;;22.47;10.37;;;3.30;99.90;;;;;;5073839;28;20541;-83
2022/03/05 00:46:16;;;;;;;24.73;13.00;;;3.30;99.90;;;;;;5073674;28;20173;-82
2022/03/05 00:48:41;;;;;;;26.50;11.60;;;3.20;99.90;;;;;;5089180;28;20211;-82
2022/03/05 00:51:07;;;;;;;24.07;12.10;;;3.10;99.90;;;;;;5072428;28;20244;-82
2022/03/05 00:53:32;;;;;;;26.43;10.83;;;3.10;99.90;;;;;;5073257;28;20178;-82
2022/03/05 00:55:58;;;;;;;23.40;13.33;;;3.10;99.90;;;;;;5073242;28;20692;-83
2022/03/05 00:58:24;;;;;;;28.37;10.33;;;3.10;99.90;;;;;;5073479;28;20665;-82
2022/03/05 01:00:49;;;;;;;31.13;11.40;;;3.00;99.90;;;;;;5073400;28;20246;-82
2022/03/05 01:03:15;;;;;;;28.07;12.13;;;3.00;99.90;;;;;;5073362;28;20535;-82
2022/03/05 01:05:40;;;;;;;23.50;10.90;;;3.00;99.90;;;;;;5073362;28;20259;-82
2022/03/05 01:08:06;;;;;;;22.77;12.23;;;2.90;99.90;;;;;;5073295;28;20185;-83
2022/03/05 01:10:31;;;;;;;27.50;13.77;;;2.90;99.90;;;;;;5073292;28;20187;-82
2022/03/05 01:12:57;;;;;;;23.80;13.23;;;2.90;99.90;;;;;;5071741;28;20210;-82
2022/03/05 01:15:23;;;;;;;25.00;13.80;;;2.90;99.90;;;;;;5073128;28;20292;-82
2022/03/05 01:17:48;;;;;;;24.53;12.77;;;2.90;99.90;;;;;;5071568;28;20179;-82
2022/03/05 01:20:14;;;;;;;29.70;12.53;;;2.90;99.90;;;;;;5073115;28;20177;-82
2022/03/05 01:22:39;;;;;;;23.53;11.70;;;2.80;99.90;;;;;;5072823;28;20210;-82
2022/03/05 01:25:05;;;;;;;27.47;13.07;;;2.80;99.90;;;;;;5072945;28;20646;-82
2022/03/05 01:27:31;;;;;;;29.87;13.87;;;2.80;99.90;;;;;;5072461;28;20180;-82
2022/03/05 01:29:56;;;;;;;25.10;11.23;;;2.70;99.90;;;;;;5071518;28;20549;-82
2022/03/05 01:32:22;;;;;;;32.47;13.70;;;2.70;99.90;;;;;;5072597;28;20238;-82
2022/03/05 01:34:47;;;;;;;27.80;12.53;;;2.60;99.90;;;;;;5072673;28;20209;-82
2022/03/05 01:37:13;;;;;;;27.13;13.53;;;2.60;99.90;;;;;;5087772;28;20634;-82
2022/03/05 01:39:41;;;;;;;23.20;10.70;;;2.50;99.90;;;;;;5074267;28;20264;-82
2022/03/05 01:42:08;;;;;;;29.60;13.43;;;2.50;99.90;;;;;;5073484;28;20201;-83
2022/03/05 01:44:33;;;;;;;29.00;11.80;;;2.50;99.90;;;;;;5073163;28;20422;-83
2022/03/05 01:47:03;;;;;;;26.20;11.10;;;2.50;99.90;;;;;;5072823;28;20420;-82
2022/03/05 01:49:32;;;;;;;25.27;11.60;;;2.50;99.90;;;;;;5073129;28;20176;-82
2022/03/05 01:51:57;;;;;;;29.47;12.90;;;2.40;99.90;;;;;;5073099;28;20453;-82
2022/03/05 01:54:24;;;;;;;31.47;12.67;;;2.50;99.90;;;;;;5072654;28;20450;-82
2022/03/05 01:56:50;;;;;;;30.77;11.57;;;2.40;99.90;;;;;;5072716;28;20171;-82
2022/03/05 01:59:16;;;;;;;24.77;11.40;;;2.40;99.90;;;;;;5072609;28;20789;-82
2022/03/05 02:01:41;;;;;;;34.00;14.67;;;2.40;99.90;;;;;;5071308;28;20481;-82
2022/03/05 02:04:07;;;;;;;22.47;11.90;;;2.40;99.90;;;;;;5072268;28;20776;-82
2022/03/05 02:06:34;;;;;;;30.03;12.20;;;2.40;99.90;;;;;;5069451;28;20179;-83
2022/03/05 02:08:59;;;;;;;29.37;12.90;;;2.40;99.90;;;;;;5070796;28;20605;-82
2022/03/05 02:11:26;;;;;;;27.13;14.00;;;2.40;99.90;;;;;;5071961;28;20425;-82
2022/03/05 02:13:52;;;;;;;25.50;12.10;;;2.30;99.90;;;;;;5072106;28;20168;-82
2022/03/05 02:16:19;;;;;;;32.40;14.40;;;2.30;99.90;;;;;;5071763;28;20967;-82
2022/03/05 02:18:46;;;;;;;25.40;13.87;;;2.30;99.90;;;;;;5071760;28;20414;-82
2022/03/05 02:21:12;;;;;;;24.80;13.07;;;2.20;99.90;;;;;;5071719;28;20906;-82
2022/03/05 02:23:38;;;;;;;24.90;12.70;;;2.10;99.90;;;;;;5072022;28;20850;-83
2022/03/05 02:26:03;;;;;;;29.37;13.60;;;2.10;99.90;;;;;;5071746;28;20493;-83
2022/03/05 02:28:30;;;;;;;32.20;12.47;;;2.10;99.90;;;;;;5072358;28;20174;-82
2022/03/05 02:30:56;;;;;;;25.33;11.83;;;2.20;99.90;;;;;;5073333;28;20202;-82
2022/03/05 02:33:22;;;;;;;28.80;13.20;;;2.20;99.90;;;;;;5072767;28;20463;-82
2022/03/05 02:35:48;;;;;;;28.97;12.93;;;2.10;99.90;;;;;;5072705;28;20981;-82
2022/03/05 02:38:15;;;;;;;29.07;13.90;;;2.10;99.90;;;;;;5072505;28;20178;-83
2022/03/05 02:40:42;;;;;;;25.67;12.63;;;2.10;99.90;;;;;;5072770;28;20410;-82
2022/03/05 02:43:08;;;;;;;25.07;12.57;;;2.10;99.90;;;;;;5088351;28;20472;-82
2022/03/05 02:45:34;;;;;;;31.83;12.80;;;2.10;99.90;;;;;;5072243;28;20508;-82
2022/03/05 02:48:05;;;;;;;31.70;14.70;;;2.00;99.90;;;;;;5072529;28;20459;-82
2022/03/05 02:50:31;;;;;;;28.30;14.00;;;2.00;99.90;;;;;;5072674;28;20179;-82
2022/03/05 02:52:57;;;;;;;26.60;11.63;;;2.00;99.90;;;;;;5072315;28;20471;-82
2022/03/05 02:55:22;;;;;;;30.67;13.43;;;2.00;99.90;;;;;;5072174;28;20210;-82
2022/03/05 02:57:48;;;;;;;27.73;13.37;;;2.00;99.90;;;;;;5072094;28;20176;-82
2022/03/05 03:00:15;;;;;;;28.80;12.93;;;1.90;99.90;;;;;;5072261;28;20210;-82
2022/03/05 03:02:41;;;;;;;27.83;13.00;;;1.90;99.90;;;;;;5071948;28;20280;-82
2022/03/05 03:05:07;;;;;;;30.47;14.30;;;2.00;99.90;;;;;;5070762;28;20425;-82
2022/03/05 03:07:33;;;;;;;28.23;11.67;;;2.00;99.90;;;;;;5071703;28;20455;-82
2022/03/05 03:09:58;;;;;;;30.37;13.07;;;1.90;99.90;;;;;;5071871;28;20529;-82
2022/03/05 03:12:25;;;;;;;30.20;12.63;;;1.90;99.90;;;;;;5071773;28;20191;-82
2022/03/05 03:14:51;;;;;;;26.20;12.47;;;2.00;99.90;;;;;;5070648;28;20204;-82
2022/03/05 03:17:17;;;;;;;30.30;13.17;;;1.90;99.90;;;;;;5073612;28;20996;-82
2022/03/05 03:19:43;;;;;;;30.83;12.43;;;1.80;99.90;;;;;;5075696;28;20172;-82
2022/03/05 03:22:09;;;;;;;31.50;13.80;;;1.80;99.90;;;;;;5080990;28;20698;-82
2022/03/05 03:24:35;;;;;;;34.30;13.80;;;1.80;99.90;;;;;;5082142;28;20405;-83
2022/03/05 03:27:00;;;;;;;30.70;12.87;;;1.80;99.90;;;;;;5082090;28;20423;-82
2022/03/05 03:29:26;;;;;;;31.73;13.73;;;1.80;99.90;;;;;;5081610;28;20183;-82
2022/03/05 03:31:52;;;;;;;25.03;12.50;;;1.80;99.90;;;;;;5082306;28;20456;-83
2022/03/05 03:34:17;;;;;;;33.30;13.57;;;1.80;99.90;;;;;;5080800;28;20650;-83
2022/03/05 03:36:43;;;;;;;28.67;13.83;;;1.70;99.90;;;;;;5081890;28;20638;-83
2022/03/05 03:39:08;;;;;;;26.17;13.07;;;1.70;99.90;;;;;;5081618;28;20172;-83
2022/03/05 03:41:34;;;;;;;25.23;12.43;;;1.70;99.90;;;;;;5080494;28;20294;-83
2022/03/05 03:44:00;;;;;;;34.17;13.57;;;1.70;99.90;;;;;;5082108;28;20180;-82
2022/03/05 03:46:25;;;;;;;33.17;13.40;;;1.70;99.90;;;;;;5081070;28;20210;-83
2022/03/05 03:48:51;;;;;;;29.87;12.33;;;1.60;99.90;;;;;;5082113;28;20171;-83
2022/03/05 03:51:16;;;;;;;26.70;12.30;;;1.60;99.90;;;;;;5081165;28;20167;-83
2022/03/05 03:53:42;;;;;;;26.50;12.93;;;1.60;99.90;;;;;;5080898;28;20176;-82
2022/03/05 03:56:07;;;;;;;30.77;14.53;;;1.60;99.90;;;;;;5080313;28;20256;-82
2022/03/05 03:58:33;;;;;;;31.90;13.87;;;1.60;99.90;;;;;;5080607;28;20252;-82
2022/03/05 04:00:59;;;;;;;26.57;11.80;;;1.60;99.90;;;;;;5080479;28;20172;-83
2022/03/05 04:03:24;;;;;;;32.63;14.53;;;1.70;99.90;;;;;;5081048;28;20689;-82
2022/03/05 04:05:50;;;;;;;30.73;13.00;;;1.70;99.90;;;;;;5080658;28;20190;-82
2022/03/05 04:10:59;;;;;;;34.20;13.67;;;1.70;99.90;;;;;;5080804;28;20205;-82
2022/03/05 04:13:25;;;;;;;25.03;12.37;;;1.60;99.90;;;;;;5078618;28;20445;-82
2022/03/05 04:15:50;;;;;;;25.17;13.73;;;1.60;99.90;;;;;;5079255;28;20254;-83
2022/03/05 04:18:16;;;;;;;30.33;13.87;;;1.60;99.90;;;;;;5079776;28;20175;-82
2022/03/05 04:20:42;;;;;;;24.40;10.90;;;1.50;99.90;;;;;;5080417;28;20789;-83
2022/03/05 04:23:07;;;;;;;23.47;11.90;;;1.50;99.90;;;;;;5079263;28;20199;-82
2022/03/05 04:25:33;;;;;;;35.83;12.67;;;1.50;99.90;;;;;;5079367;28;20254;-83
2022/03/05 04:27:58;;;;;;;26.00;11.57;;;1.50;99.90;;;;;;5078353;28;20186;-82
2022/03/05 04:30:24;;;;;;;27.07;13.87;;;1.50;99.90;;;;;;5078276;28;20740;-83
2022/03/05 04:32:49;;;;;;;27.73;11.77;;;1.50;99.90;;;;;;5079599;28;20616;-82
2022/03/05 04:35:16;;;;;;;24.07;12.20;;;1.50;99.90;;;;;;5079021;28;20197;-82
2022/03/05 04:37:42;;;;;;;23.30;10.50;;;1.50;99.90;;;;;;5078427;28;20178;-82
2022/03/05 04:40:08;;;;;;;24.83;13.57;;;1.50;99.90;;;;;;5079608;28;20435;-82
2022/03/05 04:42:35;;;;;;;23.70;10.37;;;1.40;99.90;;;;;;5079259;28;20226;-82
2022/03/05 04:45:02;;;;;;;30.67;13.33;;;1.50;99.90;;;;;;5094649;28;20424;-82
2022/03/05 04:47:27;;;;;;;26.37;11.30;;;1.50;99.90;;;;;;5078205;28;20557;-82
2022/03/05 04:49:53;;;;;;;29.63;13.17;;;1.50;99.90;;;;;;5093818;28;20417;-82
2022/03/05 04:52:18;;;;;;;22.90;11.33;;;1.50;99.90;;;;;;5076844;28;20206;-82
2022/03/05 04:54:44;;;;;;;28.83;12.27;;;1.50;99.90;;;;;;5078202;28;20271;-82
2022/03/05 04:57:10;;;;;;;25.27;11.90;;;1.60;99.90;;;;;;5078266;28;20175;-82
2022/03/05 04:59:36;;;;;;;28.73;10.70;;;1.60;99.90;;;;;;5077999;28;20185;-82
2022/03/05 05:02:01;;;;;;;25.40;10.60;;;1.50;99.90;;;;;;5078119;28;20425;-83
2022/03/05 05:04:27;;;;;;;32.10;12.40;;;1.50;99.90;;;;;;5078252;28;20239;-82
2022/03/05 05:06:52;;;;;;;22.03;11.43;;;1.50;99.90;;;;;;5093047;28;20187;-82
2022/03/05 05:09:18;;;;;;;30.73;11.37;;;1.50;99.90;;;;;;5078283;28;20269;-82
2022/03/05 05:11:44;;;;;;;22.50;11.37;;;1.40;99.90;;;;;;5077654;28;20688;-82
2022/03/05 05:14:10;;;;;;;28.57;11.20;;;1.40;99.90;;;;;;5078050;28;20201;-83
2022/03/05 05:16:36;;;;;;;34.33;12.97;;;1.30;99.90;;;;;;5077236;28;20300;-82
2022/03/05 05:21:46;;;;;;;27.47;12.20;;;1.30;99.90;;;;;;5077311;28;20204;-82
2022/03/05 05:24:12;;;;;;;27.27;11.33;;;1.30;99.90;;;;;;5077097;28;20425;-82
2022/03/05 05:26:38;;;;;;;24.97;11.27;;;1.30;99.90;;;;;;5076533;28;20188;-82
2022/03/05 05:29:03;;;;;;;20.90;10.40;;;1.30;99.90;;;;;;5077162;28;20183;-82
2022/03/05 05:31:29;;;;;;;29.30;13.70;;;1.30;99.90;;;;;;5077209;28;20501;-82
2022/03/05 05:33:55;;;;;;;30.97;12.03;;;1.30;99.90;;;;;;5076545;28;20213;-82
2022/03/05 05:36:20;;;;;;;26.60;12.77;;;1.30;99.90;;;;;;5075066;28;20214;-82
2022/03/05 05:38:46;;;;;;;25.20;11.23;;;1.30;99.90;;;;;;5076496;28;20240;-82
2022/03/05 05:41:18;;;;;;;31.73;13.47;;;1.30;99.90;;;;;;5074887;28;20172;-83
2022/03/05 05:43:44;;;;;;;21.83;10.40;;;1.30;99.90;;;;;;5076021;28;20240;-82
2022/03/05 05:46:11;;;;;;;26.27;13.33;;;1.30;99.90;;;;;;5075532;28;20413;-82
2022/03/05 05:48:37;;;;;;;28.60;12.10;;;1.30;99.90;;;;;;5073302;28;20417;-82
2022/03/05 05:51:03;;;;;;;20.47;11.10;;;1.40;99.90;;;;;;5072741;28;20525;-82
2022/03/05 05:53:28;;;;;;;21.83;12.17;;;1.40;99.90;;;;;;5072329;28;20439;-82
2022/03/05 05:55:54;;;;;;;29.70;11.40;;;1.30;99.90;;;;;;5072278;28;20465;-82
2022/03/05 05:58:21;;;;;;;26.43;11.07;;;1.30;99.90;;;;;;5072304;28;20175;-82
2022/03/05 06:00:47;;;;;;;29.83;14.20;;;1.30;99.90;;;;;;5072638;28;20188;-82
2022/03/05 06:03:13;;;;;;;24.63;10.73;;;1.30;99.90;;;;;;5072274;28;20458;-82
2022/03/05 06:05:38;;;;;;;25.90;12.20;;;1.30;99.90;;;;;;5072093;28;20413;-82
2022/03/05 06:08:04;;;;;;;24.90;12.07;;;1.20;99.90;;;;;;5072166;28;20265;-82
2022/03/05 06:10:30;;;;;;;26.33;10.50;;;1.30;99.90;;;;;;5072194;28;20175;-82
2022/03/05 06:12:55;;;;;;;27.30;12.23;;;1.20;99.90;;;;;;5072137;28;20951;-82
2022/03/05 06:15:21;;;;;;;26.30;10.90;;;1.20;99.90;;;;;;5070818;28;20199;-82
2022/03/05 06:17:47;;;;;;;26.70;11.47;;;1.30;99.90;;;;;;5071818;28;20224;-82
2022/03/05 06:20:13;;;;;;;24.50;11.90;;;1.30;99.90;;;;;;5072141;28;20184;-82
2022/03/05 06:22:39;;;;;;;30.87;11.20;;;1.30;99.90;;;;;;5072288;28;20197;-82
2022/03/05 06:25:06;;;;;;;28.73;11.20;;;1.30;99.90;;;;;;5071876;28;20420;-82
2022/03/05 06:27:31;;;;;;;26.20;10.43;;;1.30;99.90;;;;;;5071161;28;20512;-82
2022/03/05 06:29:57;;;;;;;25.93;12.57;;;1.30;99.90;;;;;;5072041;28;21211;-82
2022/03/05 06:32:23;;;;;;;20.70;11.10;;;1.30;99.90;;;;;;5099626;23;20570;-83
2022/03/05 06:34:49;;;;;;;22.17;11.80;;;1.30;99.90;;;;;;5053717;28;20207;-83
2022/03/05 06:37:15;;;;;;;24.20;13.80;;;1.30;99.90;;;;;;5054121;28;20199;-82
2022/03/05 06:39:40;;;;;;;28.83;10.93;;;1.30;99.90;;;;;;5054361;28;20530;-82
2022/03/05 06:42:06;;;;;;;22.33;13.63;;;1.40;99.90;;;;;;5054263;28;20180;-83
2022/03/05 06:44:32;;;;;;;28.17;13.90;;;1.40;99.90;;;;;;5054421;28;20505;-82
2022/03/05 06:46:59;;;;;;;25.30;11.37;;;1.40;99.90;;;;;;5053988;28;20447;-83
2022/03/05 06:49:25;;;;;;;24.87;11.47;;;1.40;99.90;;;;;;5054158;28;20528;-82
2022/03/05 06:51:50;;;;;;;25.77;13.23;;;1.40;99.90;;;;;;5055649;28;20417;-83
2022/03/05 06:54:16;;;;;;;23.70;12.07;;;1.50;99.90;;;;;;5058163;28;20474;-82
2022/03/05 06:56:43;;;;;;;25.47;11.30;;;1.50;99.90;;;;;;5057965;28;20186;-82
2022/03/05 06:59:09;;;;;;;26.20;11.80;;;1.60;99.90;;;;;;5058184;28;20217;-82
2022/03/05 07:01:34;;;;;;;29.27;13.07;;;1.60;99.90;;;;;;5058235;28;20415;-82
2022/03/05 07:04:00;;;;;;;21.87;11.30;;;1.70;99.90;;;;;;5058093;28;20213;-83
2022/03/05 07:06:25;;;;;;;25.70;11.63;;;1.70;99.90;;;;;;5057975;28;20550;-82
2022/03/05 07:08:51;;;;;;;25.57;10.60;;;1.70;99.90;;;;;;5057793;28;20188;-82
2022/03/05 07:11:17;;;;;;;24.87;12.00;;;1.70;99.90;;;;;;5058079;28;20204;-83
2022/03/05 07:13:42;;;;;;;21.20;10.60;;;1.80;99.90;;;;;;5057982;28;20186;-83
2022/03/05 07:16:08;;;;;;;30.30;12.37;;;1.90;99.90;;;;;;5057917;28;20316;-82
2022/03/05 07:18:34;;;;;;;26.63;12.43;;;1.90;99.90;;;;;;5057724;28;20560;-83
2022/03/05 07:20:59;;;;;;;21.20;11.30;;;1.90;99.90;;;;;;5057932;28;20681;-83
2022/03/05 07:23:25;;;;;;;25.50;12.10;;;2.00;99.90;;;;;;5057561;28;20179;-83
2022/03/05 07:25:51;;;;;;;31.70;12.80;;;2.00;99.90;;;;;;5075582;28;20409;-83
2022/03/05 07:28:17;;;;;;;25.00;10.80;;;2.10;99.90;;;;;;5057333;28;20236;-83
2022/03/05 07:30:42;;;;;;;26.80;11.53;;;2.20;99.90;;;;;;5057839;28;20683;-83
2022/03/05 07:33:08;;;;;;;23.17;10.83;;;2.20;99.90;;;;;;5057356;28;20208;-82
2022/03/05 07:35:34;;;;;;;23.87;11.77;;;2.20;99.90;;;;;;5057226;28;20203;-83
2022/03/05 07:38:00;;;;;;;20.63;11.13;;;2.20;99.90;;;;;;5057242;28;20171;-82
2022/03/05 07:40:26;;;;;;;23.87;10.97;;;2.40;99.90;;;;;;5057490;28;20477;-83
2022/03/05 07:42:51;;;;;;;24.40;11.50;;;2.30;99.90;;;;;;5057303;28;20211;-82
2022/03/05 07:45:17;;;;;;;25.63;11.00;;;2.40;99.90;;;;;;5057253;28;20460;-83
2022/03/05 07:47:43;;;;;;;23.37;12.90;;;2.50;99.90;;;;;;5056891;28;20610;-83
2022/03/05 07:50:09;;;;;;;22.33;11.67;;;2.60;99.90;;;;;;5057121;28;20199;-83
2022/03/05 07:52:35;;;;;;;26.00;11.50;;;2.70;99.90;;;;;;5057016;28;20221;-83
2022/03/05 07:55:01;;;;;;;28.00;11.70;;;2.70;99.90;;;;;;5075017;28;20527;-83
2022/03/05 07:57:26;;;;;;;20.40;12.30;;;2.80;99.90;;;;;;5056635;28;20187;-82
2022/03/05 07:59:52;;;;;;;22.80;11.37;;;2.90;99.90;;;;;;5057224;28;20447;-83
2022/03/05 08:02:18;;;;;;;26.20;12.37;;;3.00;99.90;;;;;;5056989;28;20175;-83
2022/03/05 08:04:47;;;;;;;25.47;11.87;;;3.00;99.90;;;;;;5055943;28;20183;-83
2022/03/05 08:07:13;;;;;;;28.43;12.20;;;3.10;99.90;;;;;;5056598;28;20224;-83
2022/03/05 08:09:42;;;;;;;28.90;13.37;;;3.10;99.90;;;;;;5056618;28;20521;-82
2022/03/05 08:12:08;;;;;;;22.30;11.40;;;3.20;99.90;;;;;;5056685;28;20426;-83
2022/03/05 08:14:34;;;;;;;27.50;11.90;;;3.20;99.90;;;;;;5056381;28;20463;-83
2022/03/05 08:16:59;;;;;;;26.20;11.50;;;3.30;99.90;;;;;;5056182;28;20413;-82
2022/03/05 08:19:25;;;;;;;24.07;10.47;;;3.40;99.90;;;;;;5056629;28;20203;-83
2022/03/05 08:21:50;;;;;;;23.23;10.73;;;3.50;99.90;;;;;;5056394;28;20202;-83
2022/03/05 08:24:16;;;;;;;28.67;12.40;;;3.50;99.90;;;;;;5056446;28;20644;-82
2022/03/05 08:26:42;;;;;;;24.27;13.80;;;3.60;99.90;;;;;;5056149;28;20182;-83
2022/03/05 08:29:07;;;;;;;24.47;11.70;;;3.70;99.90;;;;;;5056433;28;20623;-83
2022/03/05 08:31:33;;;;;;;26.07;11.30;;;3.80;99.90;;;;;;5056419;28;20188;-82
2022/03/05 08:34:01;;;;;;;24.90;11.90;;;3.80;99.90;;;;;;5056066;28;20285;-83
2022/03/05 08:36:27;;;;;;;30.30;13.10;;;3.90;99.90;;;;;;5055643;28;20298;-84
2022/03/05 08:38:53;;;;;;;27.63;11.80;;;4.00;99.90;;;;;;5056110;28;20860;-83
2022/03/05 08:41:19;;;;;;;18.30;11.50;;;4.10;99.90;;;;;;5073883;28;20444;-83
2022/03/05 08:43:45;;;;;;;25.03;11.37;;;4.20;99.90;;;;;;5055903;28;20592;-82
2022/03/05 08:46:11;;;;;;;28.93;12.63;;;4.30;99.90;;;;;;5055909;28;20450;-82
2022/03/05 08:48:37;;;;;;;22.80;11.10;;;4.40;99.90;;;;;;5055688;28;20466;-82
2022/03/05 08:51:03;;;;;;;25.20;12.97;;;4.50;99.90;;;;;;5055826;28;20228;-82
2022/03/05 08:53:29;;;;;;;23.07;12.93;;;4.60;99.90;;;;;;5055792;28;20299;-82
2022/03/05 08:55:55;;;;;;;21.13;10.40;;;4.70;99.90;;;;;;5055461;28;20550;-82
2022/03/05 08:58:21;;;;;;;28.17;13.40;;;4.80;99.90;;;;;;5055279;28;20917;-82
2022/03/05 09:00:48;;;;;;;27.30;12.57;;;4.90;99.90;;;;;;5055733;28;20436;-82
2022/03/05 09:03:14;;;;;;;30.23;14.17;;;5.00;99.90;;;;;;5055565;28;20459;-82
2022/03/05 09:05:41;;;;;;;24.83;12.50;;;5.10;99.90;;;;;;5055209;28;20486;-83
2022/03/05 09:08:07;;;;;;;28.10;13.20;;;5.20;99.90;;;;;;5050138;28;20458;-82
2022/03/05 09:10:33;;;;;;;27.40;12.17;;;5.40;99.90;;;;;;5050452;28;20441;-82
2022/03/05 09:12:59;;;;;;;27.00;13.87;;;5.60;99.90;;;;;;5052962;28;21020;-83
2022/03/05 09:15:25;;;;;;;27.77;14.47;;;5.60;99.90;;;;;;5053564;28;20218;-82
2022/03/05 09:17:51;;;;;;;28.53;12.57;;;5.70;99.90;;;;;;5053640;28;20418;-83
2022/03/05 09:20:17;;;;;;;28.10;13.30;;;5.60;99.90;;;;;;5052478;28;20537;-82
2022/03/05 09:22:42;;;;;;;19.17;10.80;;;5.70;99.90;;;;;;5053702;28;20672;-83
2022/03/05 09:25:09;;;;;;;23.47;12.10;;;5.90;99.90;;;;;;5054885;28;20425;-82
2022/03/05 09:27:35;;;;;;;30.10;12.60;;;6.00;99.90;;;;;;5055125;28;20696;-82
2022/03/05 09:30:01;;;;;;;27.37;12.80;;;5.90;99.90;;;;;;5052061;28;20445;-82
2022/03/05 09:32:26;;;;;;;29.27;15.87;;;6.00;99.90;;;;;;5054922;28;20186;-82
2022/03/05 09:34:52;;;;;;;18.03;11.10;;;6.10;99.90;;;;;;5054870;28;20548;-82
2022/03/05 09:37:18;;;;;;;22.93;12.00;;;6.20;99.90;;;;;;5054526;28;20413;-82
2022/03/05 09:39:44;;;;;;;23.40;10.97;;;6.30;99.90;;;;;;5055556;28;20217;-84
2022/03/05 09:42:09;;;;;;;24.10;11.63;;;6.40;99.90;;;;;;5054762;28;20179;-82
2022/03/05 09:44:38;;;;;;;24.20;11.80;;;6.60;99.90;;;;;;5055321;28;20183;-82
2022/03/05 09:47:06;;;;;;;18.70;11.00;;;6.70;99.90;;;;;;5054483;28;20612;-82
2022/03/05 09:49:38;;;;;;;25.77;12.53;;;6.90;99.90;;;;;;5054231;28;20524;-82
2022/03/05 09:52:04;;;;;;;22.47;11.60;;;7.00;99.90;;;;;;5055847;28;20405;-82
2022/03/05 09:54:29;;;;;;;23.80;12.40;;;7.10;99.90;;;;;;5054693;28;20422;-82
2022/03/05 09:56:55;;;;;;;27.00;13.27;;;7.20;99.90;;;;;;5054146;28;20430;-82
2022/03/05 09:59:21;;;;;;;23.57;12.20;;;7.20;99.90;;;;;;5054621;28;20257;-82
2022/03/05 10:01:48;;;;;;;23.53;12.50;;;7.30;99.90;;;;;;5054394;28;20178;-82
2022/03/05 10:04:33;;;;;;;25.33;11.93;;;7.50;99.90;;;;;;5054495;28;20410;-83
2022/03/05 10:07:12;;;;;;;23.30;11.83;;;7.70;99.90;;;;;;5054424;28;20409;-83
2022/03/05 10:09:40;;;;;;;22.83;12.90;;;7.90;99.90;;;;;;5048476;28;20551;-83
2022/03/05 10:12:25;;;;;;;20.40;13.40;;;8.00;99.90;;;;;;5048508;28;20808;-83
2022/03/05 10:15:13;;;;;;;21.07;12.37;;;8.10;99.90;;;;;;5034739;28;21019;-83
2022/03/05 10:18:05;;;;;;;25.07;12.57;;;8.20;99.90;;;;;;5034313;28;20841;-82
2022/03/05 10:20:33;;;;;;;20.70;11.60;;;8.30;99.90;;;;;;5041018;28;20452;-83
2022/03/05 10:23:11;;;;;;;26.43;13.13;;;8.30;99.90;;;;;;5054501;28;20436;-82
2022/03/05 10:25:41;;;;;;;25.00;12.57;;;9.00;99.90;;;;;;5051526;28;20425;-83
2022/03/05 10:28:12;;;;;;;21.00;12.30;;;11.10;99.90;;;;;;5053896;28;20427;-83
2022/03/05 10:30:41;;;;;;;18.10;11.70;;;13.90;99.90;;;;;;5052060;28;20449;-83
2022/03/05 10:33:08;;;;;;;21.27;12.20;;;16.30;93.90;;;;;;5052292;28;20530;-83
2022/03/05 10:35:34;;;;;;;21.67;13.33;;;18.10;85.40;;;;;;5053760;28;20464;-84
2022/03/05 10:38:03;;;;;;;21.13;13.80;;;19.50;74.00;;;;;;5054058;28;20475;-84
2022/03/05 10:40:33;;;;;;;20.00;13.33;;;21.10;53.90;;;;;;5053838;28;20441;-84
2022/03/05 10:43:01;;;;;;;23.40;13.50;;;21.40;53.50;;;;;;5054351;28;20471;-84
2022/03/05 10:45:29;;;;;;;20.30;13.03;;;22.30;50.50;;;;;;5054028;28;20840;-84
2022/03/05 10:47:56;;;;;;;23.93;14.20;;;22.80;47.20;;;;;;5053565;28;20803;-84
2022/03/05 10:50:24;;;;;;;20.63;13.13;;;23.70;44.60;;;;;;5053674;28;20441;-83
2022/03/05 10:53:02;;;;;;;22.30;13.80;;;25.10;42.20;;;;;;5053923;28;20428;-84
2022/03/05 10:55:37;;;;;;;18.90;13.67;;;25.20;39.10;;;;;;5053704;28;20453;-84
2022/03/05 10:58:06;;;;;;;17.93;13.30;;;26.00;37.80;;;;;;5053729;28;20417;-84
2022/03/05 11:00:32;;;;;;;19.80;13.73;;;27.00;35.90;;;;;;5053645;28;20448;-84
2022/03/05 11:03:00;;;;;;;18.17;12.73;;;27.10;34.00;;;;;;5053736;28;20421;-84
2022/03/05 11:05:27;;;;;;;18.13;13.20;;;26.80;33.00;;;;;;5053742;28;20456;-84
2022/03/05 11:07:54;;;;;;;22.10;12.53;;;27.20;31.70;;;;;;5053565;28;20466;-84
2022/03/05 11:10:24;;;;;;;18.73;12.30;;;26.30;31.30;;;;;;5053695;28;20436;-84
2022/03/05 11:12:52;;;;;;;18.23;12.90;;;25.60;31.60;;;;;;5053701;28;20414;-84
2022/03/05 11:15:21;;;;;;;18.67;12.43;;;25.00;31.40;;;;;;5053626;28;20881;-84
2022/03/05 11:17:47;;;;;;;18.20;12.40;;;24.70;32.20;;;;;;5053393;28;20413;-84
2022/03/05 11:20:14;;;;;;;17.67;13.07;;;24.60;31.70;;;;;;5053494;28;20494;-84
2022/03/05 11:22:41;;;;;;;18.90;12.50;;;24.00;31.90;;;;;;5053614;28;20499;-83
2022/03/05 11:25:12;;;;;;;16.80;12.70;;;24.20;32.40;;;;;;5053617;28;20826;-84
2022/03/05 11:27:38;;;;;;;20.40;13.57;;;24.40;32.40;;;;;;5053273;28;20462;-84
2022/03/05 11:30:05;;;;;;;18.13;12.30;;;24.60;32.10;;;;;;5053533;28;21040;-84
2022/03/05 11:32:34;;;;;;;21.13;12.57;;;25.20;33.30;;;;;;5053280;28;20210;-84
2022/03/05 11:35:00;;;;;;;19.57;13.00;;;25.40;31.70;;;;;;5053358;28;20830;-84
2022/03/05 11:37:33;;;;;;;17.90;12.03;;;26.40;31.90;;;;;;5053849;28;20413;-84
2022/03/05 11:40:28;;;;;;;16.17;11.73;;;27.30;30.40;;;;;;5057090;28;20437;-85
2022/03/05 11:43:36;;;;;;;20.33;12.90;;;26.30;29.10;;;;;;5056999;28;21005;-84
2022/03/05 11:46:03;;;;;;;22.27;12.27;;;24.60;30.30;;;;;;5056505;28;20524;-84
2022/03/05 11:48:32;;;;;;;18.93;12.47;;;24.20;31.30;;;;;;5056855;28;20443;-84
2022/03/05 11:51:14;;;;;;;17.00;11.53;;;24.20;30.80;;;;;;5056893;28;20437;-84
2022/03/05 11:53:42;;;;;;;17.17;11.70;;;24.40;31.30;;;;;;5057131;28;20929;-84
2022/03/05 11:56:23;;;;;;;14.93;10.70;;;25.50;30.00;;;;;;5056700;28;21042;-84
2022/03/05 11:58:49;;;;;;;17.10;11.80;;;25.80;29.80;;;;;;5056838;28;21180;-84
2022/03/05 12:01:31;;;;;;;17.53;11.00;;;26.80;29.10;;;;;;5056742;28;20409;-84
2022/03/05 12:03:58;;;;;;;16.30;12.13;;;27.40;28.70;;;;;;5057096;28;20178;-84
2022/03/05 12:06:24;;;;;;;15.13;10.60;;;27.60;28.40;;;;;;5056510;28;21009;-84
2022/03/05 12:08:51;;;;;;;17.27;12.20;;;27.90;29.20;;;;;;5056545;28;20517;-84
2022/03/05 12:11:19;;;;;;;16.13;11.10;;;28.10;28.00;;;;;;5056599;28;20551;-84
2022/03/05 12:13:58;;;;;;;17.20;11.07;;;28.30;27.70;;;;;;5056618;28;20421;-84
2022/03/05 12:16:29;;;;;;;16.33;11.40;;;27.40;26.70;;;;;;5056292;28;20449;-83
2022/03/05 12:18:59;;;;;;;18.13;11.73;;;26.10;27.00;;;;;;5056442;28;20409;-84
2022/03/05 12:21:30;;;;;;;16.40;12.13;;;26.50;28.90;;;;;;5056339;28;20479;-84
2022/03/05 12:24:10;;;;;;;17.10;12.40;;;26.60;27.30;;;;;;5056576;28;20416;-84
2022/03/05 12:26:55;;;;;;;16.73;12.00;;;25.50;27.80;;;;;;5056073;28;20504;-85
2022/03/05 12:29:21;;;;;;;19.17;12.30;;;23.50;27.70;;;;;;5056359;28;20809;-83
2022/03/05 12:31:47;;;;;;;17.10;11.10;;;21.80;28.70;;;;;;5056434;28;20418;-84
2022/03/05 12:34:19;;;;;;;16.70;10.77;;;20.60;29.10;;;;;;5069875;23;20228;-82
2022/03/05 12:36:46;;;;;;;12.57;10.07;;;19.90;29.40;;;;;;5015887;28;20192;-82
2022/03/05 12:39:14;;;;;;;16.77;10.20;;;19.50;29.10;;;;;;5016154;28;20840;-82